createdAt,value
2023-02-05T00:00:17.222Z,14.57
2023-02-05T00:02:44.378Z,16.30
2023-02-05T00:05:11.256Z,14.30
2023-02-05T00:07:38.014Z,13.17
2023-02-05T00:10:05.340Z,13.30
2023-02-05T00:12:32.915Z,13.90
2023-02-05T00:14:59.784Z,15.90
2023-02-05T00:17:26.626Z,14.17
2023-02-05T00:19:53.456Z,12.80
2023-02-05T00:22:20.289Z,16.50
2023-02-05T00:24:47.282Z,14.80
2023-02-05T00:27:14.117Z,13.20
2023-02-05T00:29:40.977Z,17.50
2023-02-05T00:32:07.738Z,17.07
2023-02-05T00:34:34.622Z,16.90
2023-02-05T00:37:01.392Z,13.30
2023-02-05T00:39:28.176Z,13.43
2023-02-05T00:41:55.012Z,17.10
2023-02-05T00:44:21.819Z,16.50
2023-02-05T00:46:48.681Z,15.50
2023-02-05T00:49:15.443Z,17.27
2023-02-05T00:51:42.439Z,13.13
2023-02-05T00:54:09.275Z,14.13
2023-02-05T00:56:36.077Z,12.77
2023-02-05T00:59:02.931Z,13.17
2023-02-05T01:01:29.873Z,15.00
2023-02-05T01:03:56.759Z,15.47
2023-02-05T01:06:23.623Z,13.53
2023-02-05T01:08:50.451Z,13.17
2023-02-05T01:11:17.586Z,12.53
2023-02-05T01:13:44.608Z,13.57
2023-02-05T01:16:11.637Z,14.70
2023-02-05T01:18:38.533Z,17.90
2023-02-05T01:21:05.499Z,16.43
2023-02-05T01:23:32.289Z,12.97
2023-02-05T01:25:59.720Z,14.27
2023-02-05T01:28:26.474Z,14.93
2023-02-05T01:30:54.146Z,12.00
2023-02-05T01:33:20.948Z,15.60
2023-02-05T01:35:47.881Z,10.10
2023-02-05T01:38:14.839Z,16.47
2023-02-05T01:40:42.576Z,11.40
2023-02-05T01:43:13.772Z,15.03
2023-02-05T01:45:50.864Z,15.77
2023-02-05T01:48:20.218Z,11.40
2023-02-05T01:50:50.083Z,9.73
2023-02-05T01:53:19.994Z,12.93
2023-02-05T01:55:57.730Z,10.90
2023-02-05T01:58:26.607Z,13.47
2023-02-05T02:00:53.606Z,13.17
2023-02-05T02:03:21.290Z,13.37
2023-02-05T02:05:48.219Z,14.13
2023-02-05T02:08:15.023Z,14.90
2023-02-05T02:10:43.680Z,14.27
2023-02-05T02:13:12.040Z,13.70
2023-02-05T02:15:39.189Z,10.77
2023-02-05T02:18:26.504Z,12.33
2023-02-05T02:21:12.417Z,13.33
2023-02-05T02:23:58.159Z,9.13
2023-02-05T02:26:48.323Z,12.63
2023-02-05T02:29:19.090Z,12.77
2023-02-05T02:31:56.207Z,12.03
2023-02-05T02:34:49.372Z,11.07
2023-02-05T02:37:24.640Z,10.30
2023-02-05T02:39:51.523Z,10.13
2023-02-05T02:42:24.616Z,13.67
2023-02-05T02:44:59.617Z,9.87
2023-02-05T02:47:29.044Z,13.20
2023-02-05T02:50:01.252Z,12.87
2023-02-05T02:52:30.204Z,11.10
2023-02-05T02:55:00.904Z,11.70
2023-02-05T02:57:29.444Z,9.87
2023-02-05T02:59:59.929Z,11.97
2023-02-05T03:02:29.356Z,12.77
2023-02-05T03:04:57.496Z,10.17
2023-02-05T03:07:34.790Z,8.90
2023-02-05T03:10:05.188Z,9.90
2023-02-05T03:12:32.152Z,8.67
2023-02-05T03:14:59.173Z,10.07
2023-02-05T03:17:27.369Z,10.17
2023-02-05T03:19:59.465Z,11.40
2023-02-05T03:22:26.794Z,7.40
2023-02-05T03:24:54.450Z,11.23
2023-02-05T03:27:22.341Z,9.73
2023-02-05T03:29:50.631Z,9.97
2023-02-05T03:32:40.728Z,12.17
2023-02-05T03:35:10.978Z,13.93
2023-02-05T03:37:43.954Z,12.93
2023-02-05T03:40:28.340Z,15.53
2023-02-05T03:43:13.941Z,23.70
2023-02-05T03:45:58.789Z,37.77
2023-02-05T03:48:41.894Z,34.30
2023-02-05T03:51:29.801Z,13.03
2023-02-05T03:54:19.107Z,11.03
2023-02-05T03:56:48.971Z,9.37
2023-02-05T03:59:16.963Z,12.90
2023-02-05T04:01:45.355Z,10.33
2023-02-05T04:04:14.060Z,9.80
2023-02-05T04:06:41.081Z,14.30
2023-02-05T04:09:08.421Z,12.63
2023-02-05T04:11:35.663Z,10.87
2023-02-05T04:14:04.317Z,12.53
2023-02-05T04:16:31.287Z,12.97
2023-02-05T04:18:59.783Z,12.53
2023-02-05T04:21:27.820Z,14.53
2023-02-05T04:23:54.791Z,12.63
2023-02-05T04:26:21.706Z,15.63
2023-02-05T04:28:58.335Z,18.00
2023-02-05T04:31:25.629Z,11.70
2023-02-05T04:33:52.607Z,14.53
2023-02-05T04:36:19.624Z,14.83
2023-02-05T04:38:46.471Z,11.40
2023-02-05T04:41:14.352Z,14.03
2023-02-05T04:43:41.180Z,14.37
2023-02-05T04:46:09.259Z,12.50
2023-02-05T04:48:36.454Z,12.77
2023-02-05T04:51:07.270Z,15.47
2023-02-05T04:53:34.176Z,16.37
2023-02-05T04:56:08.130Z,16.57
2023-02-05T04:58:35.334Z,11.97
2023-02-05T05:01:02.164Z,11.60
2023-02-05T05:03:29.100Z,15.83
2023-02-05T05:05:56.042Z,15.10
2023-02-05T05:08:22.882Z,12.47
2023-02-05T05:10:49.817Z,13.13
2023-02-05T05:13:16.588Z,14.83
2023-02-05T05:15:43.434Z,13.00
2023-02-05T05:18:10.377Z,13.90
2023-02-05T05:20:37.108Z,15.23
2023-02-05T05:23:03.955Z,11.80
2023-02-05T05:25:30.816Z,12.70
2023-02-05T05:27:57.632Z,14.63
2023-02-05T05:30:24.887Z,12.93
2023-02-05T05:32:51.627Z,14.00
2023-02-05T05:35:18.404Z,16.10
2023-02-05T05:37:45.245Z,20.17
2023-02-05T05:40:31.432Z,21.03
2023-02-05T05:43:16.976Z,18.13
2023-02-05T05:45:43.898Z,15.13
2023-02-05T05:48:10.769Z,11.97
2023-02-05T05:50:37.679Z,12.60
2023-02-05T05:53:04.498Z,10.37
2023-02-05T05:55:31.611Z,12.33
2023-02-05T05:57:58.491Z,14.97
2023-02-05T06:00:25.271Z,15.07
2023-02-05T06:02:52.153Z,15.10
2023-02-05T06:05:18.911Z,11.03
2023-02-05T06:07:46.221Z,14.10
2023-02-05T06:10:13.088Z,9.70
2023-02-05T06:12:39.983Z,13.30
2023-02-05T06:15:07.099Z,12.30
2023-02-05T06:17:33.885Z,12.43
2023-02-05T06:20:00.839Z,11.37
2023-02-05T06:22:27.608Z,12.77
2023-02-05T06:24:54.443Z,12.27
2023-02-05T06:27:21.313Z,9.10
2023-02-05T06:29:48.162Z,12.13
2023-02-05T06:32:14.979Z,13.67
2023-02-05T06:34:41.832Z,12.50
2023-02-05T06:37:08.694Z,10.33
2023-02-05T06:39:35.594Z,13.87
2023-02-05T06:42:02.427Z,13.77
2023-02-05T06:44:29.204Z,11.13
2023-02-05T06:46:56.035Z,9.90
2023-02-05T06:49:22.926Z,11.83
2023-02-05T06:51:49.658Z,13.07
2023-02-05T06:54:16.556Z,12.17
2023-02-05T06:56:43.320Z,11.83
2023-02-05T06:59:10.256Z,13.13
2023-02-05T07:01:37.129Z,15.10
2023-02-05T07:04:04.110Z,10.87
2023-02-05T07:06:31.021Z,12.47
2023-02-05T07:08:59.546Z,11.93
2023-02-05T07:11:26.403Z,9.90
2023-02-05T07:13:53.268Z,10.03
2023-02-05T07:16:20.274Z,13.97
2023-02-05T07:18:47.577Z,14.27
2023-02-05T07:21:16.301Z,11.87
2023-02-05T07:23:43.129Z,11.80
2023-02-05T07:26:10.965Z,12.93
2023-02-05T07:28:38.004Z,14.63
2023-02-05T07:31:06.330Z,10.70
2023-02-05T07:33:33.345Z,10.60
2023-02-05T07:36:07.282Z,10.57
2023-02-05T07:38:34.746Z,12.83
2023-02-05T07:41:05.222Z,17.20
2023-02-05T07:43:32.536Z,10.83
2023-02-05T07:46:00.592Z,11.13
2023-02-05T07:48:27.558Z,11.17
2023-02-05T07:50:54.312Z,11.30
2023-02-05T07:53:21.386Z,9.03
2023-02-05T07:55:48.208Z,9.97
2023-02-05T07:58:15.081Z,13.87
2023-02-05T08:00:42.283Z,11.10
2023-02-05T08:03:09.424Z,14.87
2023-02-05T08:05:39.630Z,15.47
2023-02-05T08:08:06.955Z,15.53
2023-02-05T08:10:34.274Z,13.93
2023-02-05T08:13:01.066Z,15.57
2023-02-05T08:15:28.403Z,16.37
2023-02-05T08:17:55.271Z,15.27
2023-02-05T08:20:22.456Z,16.40
2023-02-05T08:22:49.330Z,12.40
2023-02-05T08:25:16.325Z,14.00
2023-02-05T08:27:43.422Z,15.80
2023-02-05T08:30:12.044Z,13.20
2023-02-05T08:32:39.086Z,14.40
2023-02-05T08:35:06.116Z,15.63
2023-02-05T08:37:32.948Z,14.20
2023-02-05T08:39:59.713Z,15.17
2023-02-05T08:42:26.549Z,12.80
2023-02-05T08:44:53.355Z,15.43
2023-02-05T08:47:21.118Z,12.30
2023-02-05T08:49:48.301Z,11.83
2023-02-05T08:52:15.125Z,11.17
2023-02-05T08:54:44.951Z,13.03
2023-02-05T08:57:16.519Z,10.83
2023-02-05T08:59:43.592Z,9.53
2023-02-05T09:02:13.920Z,10.13
2023-02-05T09:04:40.817Z,11.47
2023-02-05T09:07:07.742Z,11.10
2023-02-05T09:09:35.424Z,8.93
2023-02-05T09:12:02.474Z,11.13
2023-02-05T09:14:36.226Z,11.73
2023-02-05T09:17:04.347Z,11.27
2023-02-05T09:19:33.600Z,8.27
2023-02-05T09:22:00.576Z,10.33
2023-02-05T09:24:27.395Z,7.60
2023-02-05T09:26:54.213Z,7.33
2023-02-05T09:29:21.195Z,10.53
2023-02-05T09:31:48.057Z,9.07
2023-02-05T09:34:15.245Z,7.87
2023-02-05T09:36:42.233Z,4.70
2023-02-05T09:39:18.573Z,8.67
2023-02-05T09:42:02.523Z,7.97
2023-02-05T09:44:43.641Z,10.17
2023-02-05T09:47:13.554Z,6.33
2023-02-05T09:49:43.477Z,7.80
2023-02-05T09:52:21.052Z,4.90
2023-02-05T09:55:10.860Z,4.77
2023-02-05T09:57:39.676Z,6.40
2023-02-05T10:00:27.641Z,5.47
2023-02-05T10:02:59.292Z,6.17
2023-02-05T10:05:29.764Z,5.40
2023-02-05T10:08:03.003Z,5.93
2023-02-05T10:10:36.590Z,7.67
2023-02-05T10:13:23.734Z,5.47
2023-02-05T10:15:56.882Z,4.17
2023-02-05T10:18:26.846Z,4.57
2023-02-05T10:20:56.863Z,4.20
2023-02-05T10:23:23.692Z,5.03
2023-02-05T10:26:09.915Z,5.47
2023-02-05T10:28:45.126Z,4.10
2023-02-05T10:31:25.434Z,4.37
2023-02-05T10:33:56.959Z,4.17
2023-02-05T10:36:25.396Z,4.70
2023-02-05T10:38:54.218Z,4.63
2023-02-05T10:41:39.112Z,6.17
2023-02-05T10:44:09.012Z,5.20
2023-02-05T10:46:36.874Z,6.73
2023-02-05T10:49:18.768Z,7.87
2023-02-05T10:51:45.930Z,6.87
2023-02-05T10:54:24.470Z,5.60
2023-02-05T10:56:51.378Z,9.13
2023-02-05T10:59:25.242Z,6.23
2023-02-05T11:01:53.088Z,9.37
2023-02-05T11:04:46.597Z,12.30
2023-02-05T11:07:14.538Z,7.60
2023-02-05T11:09:41.413Z,6.30
2023-02-05T11:12:19.652Z,5.17
2023-02-05T11:14:55.346Z,8.60
2023-02-05T11:17:24.781Z,7.43
2023-02-05T11:19:55.567Z,7.90
2023-02-05T11:22:29.760Z,10.67
2023-02-05T11:25:07.561Z,10.37
2023-02-05T11:27:35.522Z,13.07
2023-02-05T11:30:19.158Z,14.60
2023-02-05T11:32:48.103Z,12.50
2023-02-05T11:35:19.844Z,11.50
2023-02-05T11:37:48.753Z,13.77
2023-02-05T11:40:29.551Z,9.63
2023-02-05T11:43:19.384Z,11.37
2023-02-05T11:45:49.160Z,13.63
2023-02-05T11:48:24.927Z,9.47
2023-02-05T11:50:52.004Z,10.67
2023-02-05T11:53:20.068Z,9.47
2023-02-05T11:55:52.251Z,11.60
2023-02-05T11:58:34.778Z,15.27
2023-02-05T12:01:04.450Z,13.53
2023-02-05T12:03:32.980Z,11.77
2023-02-05T12:06:17.645Z,11.47
2023-02-05T12:08:49.077Z,12.47
2023-02-05T12:11:22.165Z,11.87
2023-02-05T12:13:52.460Z,13.87
2023-02-05T12:16:41.782Z,10.10
2023-02-05T12:19:08.707Z,10.97
2023-02-05T12:21:47.417Z,10.20
2023-02-05T12:24:35.557Z,11.17
2023-02-05T12:27:21.424Z,11.57
2023-02-05T12:29:51.025Z,7.93
2023-02-05T12:32:38.491Z,11.53
2023-02-05T12:35:05.293Z,10.67
2023-02-05T12:37:43.975Z,12.50
2023-02-05T12:40:17.195Z,10.73
2023-02-05T12:42:47.005Z,19.97
2023-02-05T12:45:32.568Z,16.07
2023-02-05T12:48:02.367Z,17.13
2023-02-05T12:50:45.965Z,11.93
2023-02-05T12:53:20.195Z,17.10
2023-02-05T12:56:05.873Z,14.77
2023-02-05T12:58:42.996Z,10.63
2023-02-05T13:01:18.343Z,9.33
2023-02-05T13:03:56.779Z,10.70
2023-02-05T13:06:24.414Z,10.47
2023-02-05T13:08:53.651Z,10.27
2023-02-05T13:11:29.761Z,19.23
2023-02-05T13:14:00.349Z,10.43
2023-02-05T13:16:33.117Z,11.33
2023-02-05T13:19:02.163Z,11.50
2023-02-05T13:21:48.359Z,8.63
2023-02-05T13:24:57.369Z,10.17
2023-02-05T13:27:47.865Z,14.70
2023-02-05T13:30:17.150Z,10.40
2023-02-05T13:32:44.444Z,11.40
2023-02-05T13:35:11.305Z,10.97
2023-02-05T13:37:43.894Z,12.33
2023-02-05T13:40:49.298Z,12.70
2023-02-05T13:43:42.743Z,11.30
2023-02-05T13:46:18.207Z,10.40
2023-02-05T13:48:45.563Z,7.77
2023-02-05T13:51:12.508Z,8.57
2023-02-05T13:53:53.471Z,7.37
2023-02-05T13:56:40.557Z,9.07
2023-02-05T13:59:16.205Z,9.93
2023-02-05T14:01:44.825Z,9.87
2023-02-05T14:04:20.763Z,8.70
2023-02-05T14:06:55.194Z,8.43
2023-02-05T14:09:45.433Z,10.90
2023-02-05T14:12:13.836Z,9.20
2023-02-05T14:14:42.056Z,13.03
2023-02-05T14:17:27.751Z,10.37
2023-02-05T14:19:59.069Z,10.70
2023-02-05T14:22:34.781Z,8.80
2023-02-05T14:25:01.599Z,9.73
2023-02-05T14:27:34.278Z,10.00
2023-02-05T14:30:20.016Z,9.43
2023-02-05T14:32:46.957Z,9.90
2023-02-05T14:35:32.785Z,10.83
2023-02-05T14:38:03.450Z,22.00
2023-02-05T14:40:36.770Z,26.67
2023-02-05T14:43:21.586Z,7.80
2023-02-05T14:45:50.435Z,8.90
2023-02-05T14:48:28.561Z,12.03
2023-02-05T14:51:03.183Z,12.97
2023-02-05T14:53:30.325Z,11.87
2023-02-05T14:56:00.252Z,11.13
2023-02-05T14:58:33.241Z,9.90
2023-02-05T15:01:18.915Z,22.07
2023-02-05T15:03:45.840Z,8.43
2023-02-05T15:06:17.079Z,25.90
2023-02-05T15:08:47.047Z,25.10
2023-02-05T15:11:27.319Z,9.87
2023-02-05T15:14:12.998Z,14.90
2023-02-05T15:16:41.039Z,10.80
2023-02-05T15:19:09.399Z,15.13
2023-02-05T15:21:42.806Z,7.87
2023-02-05T15:24:15.173Z,13.23
2023-02-05T15:26:45.240Z,26.43
2023-02-05T15:29:20.386Z,29.80
2023-02-05T15:31:54.861Z,20.83
2023-02-05T15:34:21.848Z,15.27
2023-02-05T15:36:59.275Z,20.17
2023-02-05T15:39:35.122Z,9.13
2023-02-05T15:42:04.195Z,8.90
2023-02-05T15:44:32.420Z,9.73
2023-02-05T15:47:00.684Z,9.97
2023-02-05T15:49:47.463Z,9.93
2023-02-05T15:52:25.212Z,14.47
2023-02-05T15:54:53.532Z,8.93
2023-02-05T15:57:24.775Z,10.93
2023-02-05T15:59:55.496Z,12.53
2023-02-05T16:02:26.728Z,29.40
2023-02-05T16:04:58.672Z,11.43
2023-02-05T16:07:37.341Z,19.37
2023-02-05T16:10:15.983Z,42.90
2023-02-05T16:12:58.918Z,29.33
2023-02-05T16:15:29.309Z,24.97
2023-02-05T16:17:59.787Z,14.87
2023-02-05T16:20:29.656Z,11.57
2023-02-05T16:22:58.252Z,10.23
2023-02-05T16:25:41.977Z,12.10
2023-02-05T16:28:24.964Z,9.27
2023-02-05T16:30:54.454Z,12.30
2023-02-05T16:33:26.800Z,16.40
2023-02-05T16:35:54.661Z,34.23
2023-02-05T16:38:23.455Z,63.43
2023-02-05T16:40:52.013Z,62.63
2023-02-05T16:43:18.797Z,44.13
2023-02-05T16:46:20.609Z,41.43
2023-02-05T16:48:47.440Z,24.73
2023-02-05T16:51:28.453Z,22.53
2023-02-05T16:53:55.263Z,19.30
2023-02-05T16:56:23.554Z,26.83
2023-02-05T16:58:52.340Z,21.90
2023-02-05T17:01:23.666Z,24.70
2023-02-05T17:03:50.815Z,25.57
2023-02-05T17:06:18.982Z,33.27
2023-02-05T17:08:54.465Z,32.03
2023-02-05T17:11:30.372Z,31.33
2023-02-05T17:14:20.502Z,29.80
2023-02-05T17:16:53.940Z,32.57
2023-02-05T17:19:25.301Z,40.00
2023-02-05T17:22:15.341Z,32.97
2023-02-05T17:24:43.596Z,35.30
2023-02-05T17:27:18.044Z,37.13
2023-02-05T17:29:46.523Z,31.10
2023-02-05T17:32:18.527Z,46.43
2023-02-05T17:34:46.543Z,71.80
2023-02-05T17:37:14.180Z,265.37
2023-02-05T17:39:41.745Z,411.00
2023-02-05T17:42:20.173Z,376.53
2023-02-05T17:44:47.101Z,381.40
2023-02-05T17:47:14.025Z,334.70
2023-02-05T17:49:42.072Z,313.33
2023-02-05T17:52:09.964Z,263.33
2023-02-05T17:54:37.027Z,222.07
2023-02-05T17:57:23.302Z,139.40
2023-02-05T17:59:50.351Z,45.23
2023-02-05T18:02:17.833Z,38.93
2023-02-05T18:04:45.228Z,51.83
2023-02-05T18:07:18.323Z,70.83
2023-02-05T18:09:45.460Z,96.07
2023-02-05T18:12:12.197Z,79.00
2023-02-05T18:14:39.024Z,73.00
2023-02-05T18:17:05.829Z,67.37
2023-02-05T18:19:34.884Z,50.97
2023-02-05T18:22:01.970Z,56.80
2023-02-05T18:24:29.191Z,61.37
2023-02-05T18:26:57.135Z,52.23
2023-02-05T18:29:24.107Z,61.33
2023-02-05T18:31:51.426Z,65.87
2023-02-05T18:34:19.256Z,82.27
2023-02-05T18:36:46.325Z,79.73
2023-02-05T18:39:13.100Z,82.20
2023-02-05T18:41:41.064Z,75.63
2023-02-05T18:44:08.620Z,70.43
2023-02-05T18:46:35.591Z,75.80
2023-02-05T18:49:02.471Z,71.90
2023-02-05T18:51:29.397Z,73.40
2023-02-05T18:53:57.643Z,82.77
2023-02-05T18:56:25.780Z,72.23
2023-02-05T18:58:53.977Z,84.10
2023-02-05T19:01:21.053Z,83.37
2023-02-05T19:03:48.017Z,71.90
2023-02-05T19:06:16.656Z,78.33
2023-02-05T19:08:43.765Z,70.70
2023-02-05T19:11:21.562Z,66.93
2023-02-05T19:13:54.174Z,73.57
2023-02-05T19:16:21.319Z,73.77
2023-02-05T19:18:49.253Z,64.70
2023-02-05T19:21:18.631Z,76.97
2023-02-05T19:23:46.825Z,76.13
2023-02-05T19:26:15.502Z,67.73
2023-02-05T19:28:43.921Z,69.87
2023-02-05T19:31:13.310Z,82.47
2023-02-05T19:33:40.835Z,78.10
2023-02-05T19:36:09.679Z,80.47
2023-02-05T19:38:37.829Z,59.43
2023-02-05T19:41:06.769Z,60.30
2023-02-05T19:43:33.562Z,53.13
2023-02-05T19:46:04.207Z,40.77
2023-02-05T19:48:31.941Z,49.20
2023-02-05T19:51:10.219Z,43.33
2023-02-05T19:53:39.061Z,42.77
2023-02-05T19:56:07.482Z,48.57
2023-02-05T19:58:35.096Z,50.00
2023-02-05T20:01:02.265Z,56.87
2023-02-05T20:03:29.328Z,60.03
2023-02-05T20:05:56.285Z,61.07
2023-02-05T20:08:23.194Z,63.53
2023-02-05T20:11:00.054Z,54.47
2023-02-05T20:13:27.538Z,68.63
2023-02-05T20:15:54.660Z,71.00
2023-02-05T20:18:22.404Z,71.33
2023-02-05T20:20:49.554Z,64.63
2023-02-05T20:23:16.656Z,61.90
2023-02-05T20:25:43.489Z,60.93
2023-02-05T20:28:10.390Z,63.53
2023-02-05T20:30:55.968Z,64.50
2023-02-05T20:33:23.039Z,60.57
2023-02-05T20:35:50.043Z,64.60
2023-02-05T20:38:17.108Z,57.10
2023-02-05T20:40:44.201Z,57.57
2023-02-05T20:43:11.202Z,75.23
2023-02-05T20:45:38.096Z,77.77
2023-02-05T20:48:05.194Z,58.07
2023-02-05T20:50:32.245Z,59.37
2023-02-05T20:52:59.584Z,64.33
2023-02-05T20:55:27.408Z,54.13
2023-02-05T20:57:54.648Z,62.80
2023-02-05T21:00:24.017Z,60.53
2023-02-05T21:02:51.978Z,64.10
2023-02-05T21:05:19.480Z,59.23
2023-02-05T21:07:46.346Z,61.43
2023-02-05T21:10:13.650Z,62.30
2023-02-05T21:12:41.168Z,68.70
2023-02-05T21:15:08.623Z,75.87
2023-02-05T21:17:37.603Z,76.70
2023-02-05T21:20:04.947Z,70.00
2023-02-05T21:22:31.743Z,79.23
2023-02-05T21:24:59.223Z,69.97
2023-02-05T21:27:27.565Z,60.23
2023-02-05T21:29:54.693Z,59.77
2023-02-05T21:32:22.752Z,55.13
2023-02-05T21:34:49.948Z,58.00
2023-02-05T21:37:17.300Z,55.27
2023-02-05T21:39:44.769Z,52.97
2023-02-05T21:42:11.805Z,50.40
2023-02-05T21:44:39.000Z,62.37
2023-02-05T21:47:06.275Z,60.83
2023-02-05T21:49:33.237Z,59.27
2023-02-05T21:52:00.836Z,52.47
2023-02-05T21:54:27.951Z,51.47
2023-02-05T21:56:55.283Z,59.97
2023-02-05T21:59:22.516Z,63.43
2023-02-05T22:01:50.395Z,67.33
2023-02-05T22:04:17.921Z,53.63
2023-02-05T22:06:44.936Z,56.63
2023-02-05T22:09:13.988Z,50.30
2023-02-05T22:11:41.198Z,52.37
2023-02-05T22:14:08.743Z,54.40
2023-02-05T22:16:36.583Z,56.53
2023-02-05T22:19:04.309Z,55.63
2023-02-05T22:21:35.631Z,60.33
2023-02-05T22:24:03.984Z,41.70
2023-02-05T22:26:32.285Z,33.63
2023-02-05T22:29:00.161Z,36.90
2023-02-05T22:31:27.817Z,48.33
2023-02-05T22:33:54.769Z,58.53
2023-02-05T22:36:22.893Z,55.27
2023-02-05T22:38:50.407Z,54.43
2023-02-05T22:41:21.499Z,63.97
2023-02-05T22:43:48.283Z,46.07
2023-02-05T22:46:16.360Z,32.20
2023-02-05T22:48:44.363Z,24.53
2023-02-05T22:51:12.358Z,22.43
2023-02-05T22:53:39.641Z,20.07
2023-02-05T22:56:07.854Z,18.00
2023-02-05T22:58:35.072Z,18.37
2023-02-05T23:01:12.086Z,17.20
2023-02-05T23:03:39.558Z,17.07
2023-02-05T23:06:13.311Z,24.43
2023-02-05T23:08:40.607Z,21.53
2023-02-05T23:11:09.104Z,21.70
2023-02-05T23:13:35.961Z,23.00
2023-02-05T23:16:06.561Z,19.43
2023-02-05T23:18:33.581Z,20.00
2023-02-05T23:21:00.567Z,22.20
2023-02-05T23:23:27.361Z,30.63
2023-02-05T23:25:55.253Z,43.00
2023-02-05T23:28:24.746Z,29.67
2023-02-05T23:30:51.909Z,29.50
2023-02-05T23:33:18.859Z,29.67
2023-02-05T23:35:45.647Z,26.00
2023-02-05T23:38:12.421Z,23.93
2023-02-05T23:40:39.227Z,22.93
2023-02-05T23:43:06.709Z,22.97
2023-02-05T23:45:33.850Z,25.90
2023-02-05T23:48:01.823Z,21.97
2023-02-05T23:50:28.689Z,25.33
2023-02-05T23:52:55.713Z,21.93
2023-02-05T23:55:22.558Z,24.03
2023-02-05T23:57:49.615Z,24.17
